Time;durP1;ratioP1;P1;durP2;ratioP2;P2;SDS_P1;SDS_P2;PMS_P1;PMS_P2;Temp;Humidity;BMP_temperature;BMP_pressure;BME280_temperature;BME280_humidity;BME280_pressure;Samples;Min_cycle;Max_cycle;Signal;HPM_P1;HPM_P2
2022/12/11 00:01:30;;;;;;;19.53;9.53;;;;;;;-2.39;100.00;100410.81;4920599;29;20047;-87
2022/12/11 00:03:57;;;;;;;19.00;9.50;;;;;;;-2.37;100.00;100407.41;4923645;29;20039;-87
2022/12/11 00:06:24;;;;;;;21.90;10.63;;;;;;;-2.38;100.00;100408.25;4908630;29;20044;-86
2022/12/11 00:08:54;;;;;;;18.27;9.93;;;;;;;-2.41;100.00;100413.34;4933212;29;20055;-87
2022/12/11 00:11:22;;;;;;;20.80;10.40;;;;;;;-2.18;100.00;100403.63;4907134;29;20508;-86
2022/12/11 00:13:48;;;;;;;20.80;9.10;;;;;;;-2.16;100.00;100403.69;4911407;29;20047;-87
2022/12/11 00:16:15;;;;;;;20.80;10.07;;;;;;;-2.24;100.00;100407.78;4922485;29;20043;-87
2022/12/11 00:18:42;;;;;;;23.97;10.53;;;;;;;-2.33;100.00;100411.84;4903117;29;20052;-87
2022/12/11 00:21:11;;;;;;;19.23;9.90;;;;;;;-2.30;100.00;100413.66;4922815;29;20047;-88
2022/12/11 00:23:39;;;;;;;18.20;10.13;;;;;;;-2.30;100.00;100401.59;4933731;29;20039;-88
2022/12/11 00:26:08;;;;;;;21.90;10.23;;;;;;;-2.14;100.00;100402.88;4914340;29;20115;-86
2022/12/11 00:28:35;;;;;;;20.13;10.23;;;;;;;-2.16;100.00;100404.56;4920946;29;20047;-87
2022/12/11 00:31:04;;;;;;;19.63;9.50;;;;;;;-2.32;100.00;100411.03;4906120;29;20055;-87
2022/12/11 00:33:30;;;;;;;25.30;10.63;;;;;;;-2.36;100.00;100403.13;4911754;29;20047;-86
2022/12/11 00:35:57;;;;;;;17.17;9.97;;;;;;;-2.10;100.00;100403.81;4900742;29;20448;-87
2022/12/11 00:38:24;;;;;;;22.97;10.90;;;;;;;-2.28;100.00;100394.72;4922837;29;20036;-86
2022/12/11 00:40:51;;;;;;;23.13;10.47;;;;;;;-2.31;100.00;100394.66;4889225;29;20564;-86
2022/12/11 00:43:17;;;;;;;22.60;10.50;;;;;;;-2.30;100.00;100406.75;4918571;29;20103;-85
2022/12/11 00:45:45;;;;;;;21.03;9.80;;;;;;;-2.35;100.00;100403.19;4920217;29;20103;-87
2022/12/11 00:48:12;;;;;;;22.30;10.77;;;;;;;-2.36;100.00;100390.19;4922110;29;20083;-86
2022/12/11 00:50:39;;;;;;;26.43;11.10;;;;;;;-2.34;100.00;100398.88;4903960;29;20043;-86
2022/12/11 00:53:06;;;;;;;26.57;11.37;;;;;;;-2.10;100.00;100398.63;4904568;29;20461;-86
2022/12/11 00:55:38;;;;;;;17.53;9.67;;;;;;;-2.17;100.00;100397.63;4918814;29;20050;-87
2022/12/11 00:58:05;;;;;;;16.97;9.53;;;;;;;-2.32;100.00;100408.44;4935696;29;20043;-87
2022/12/11 01:00:32;;;;;;;23.60;10.67;;;;;;;-2.22;100.00;100404.38;4917009;29;20072;-87
2022/12/11 01:02:58;;;;;;;23.60;11.33;;;;;;;-2.31;100.00;100392.06;4915191;29;20477;-86
2022/12/11 01:05:26;;;;;;;19.37;9.53;;;;;;;-2.41;100.00;100397.84;4933080;29;20509;-86
2022/12/11 01:07:52;;;;;;;21.03;10.77;;;;;;;-2.44;100.00;100396.84;4917083;29;20444;-87
2022/12/11 01:10:25;;;;;;;19.90;9.90;;;;;;;-2.48;100.00;100382.97;4925109;29;20070;-86
2022/12/11 01:12:55;;;;;;;20.13;10.03;;;;;;;-2.53;100.00;100386.25;4902701;29;20055;-85
2022/12/11 01:15:24;;;;;;;17.60;10.00;;;;;;;-2.28;100.00;100393.84;4920681;29;20134;-87
2022/12/11 01:17:51;;;;;;;22.90;11.77;;;;;;;-2.55;100.00;100389.69;4920148;29;20055;-87
2022/12/11 01:20:19;;;;;;;18.07;9.10;;;;;;;-2.57;100.00;100395.66;4918439;29;20051;-87
2022/12/11 01:22:46;;;;;;;20.70;10.40;;;;;;;-2.50;100.00;100392.41;4917868;29;20073;-87
2022/12/11 01:25:12;;;;;;;18.20;9.60;;;;;;;-2.32;100.00;100398.09;4917290;29;20052;-86
2022/12/11 01:27:39;;;;;;;17.40;9.53;;;;;;;-2.25;100.00;100406.91;4901580;29;20058;-87
2022/12/11 01:30:07;;;;;;;21.87;9.33;;;;;;;-2.35;100.00;100403.19;4919133;29;20059;-87
2022/12/11 01:32:34;;;;;;;18.80;9.50;;;;;;;-2.44;100.00;100405.50;4918257;29;20048;-87
2022/12/11 01:35:04;;;;;;;22.37;9.63;;;;;;;-2.48;100.00;100401.09;4939151;29;20107;-88
2022/12/11 01:37:30;;;;;;;20.20;10.57;;;;;;;-2.26;100.00;100397.38;4919196;29;20075;-87
2022/12/11 01:39:58;;;;;;;22.17;10.03;;;;;;;-2.29;100.00;100399.88;4903397;29;20122;-87
2022/12/11 01:42:28;;;;;;;23.00;10.00;;;;;;;-2.27;100.00;100399.09;4900351;29;20134;-87
2022/12/11 01:45:29;;;;;;;19.50;9.77;;;;;;;-2.36;100.00;100398.81;4904561;29;20047;-87
2022/12/11 01:48:14;;;;;;;18.50;10.13;;;;;;;-2.38;100.00;100391.84;4872230;29;20502;-85
2022/12/11 01:51:00;;;;;;;19.55;10.82;;;;;;;-2.32;100.00;100398.09;4909065;29;20047;-87
2022/12/11 01:53:42;;;;;;;19.47;11.23;;;;;;;-2.18;100.00;100384.66;4884149;29;20041;-86
2022/12/11 01:56:09;;;;;;;22.83;10.10;;;;;;;-2.27;100.00;100380.06;4881888;29;20383;-86
2022/12/11 01:58:43;;;;;;;19.03;10.83;;;;;;;-2.35;100.00;100382.50;4883150;29;20502;-85
2022/12/11 02:01:15;;;;;;;23.20;10.45;;;;;;;-2.36;100.00;100387.59;4883380;29;20055;-85
2022/12/11 02:03:42;;;;;;;19.63;10.43;;;;;;;-2.42;100.00;100388.31;4881203;29;20048;-87
2022/12/11 02:06:29;;;;;;;22.20;11.03;;;;;;;-2.40;100.00;100385.78;4878254;29;20044;-86
2022/12/11 02:08:55;;;;;;;20.53;11.37;;;;;;;-2.39;100.00;100388.41;4884312;29;20048;-87
2022/12/11 02:11:31;;;;;;;22.20;10.07;;;;;;;-2.26;100.00;100387.03;4900017;29;20048;-86
2022/12/11 02:14:12;;;;;;;22.60;10.60;;;;;;;-2.35;100.00;100387.66;4890286;29;20426;-87
2022/12/11 02:16:54;;;;;;;20.73;10.47;;;;;;;-2.26;100.00;100394.78;4899517;29;20040;-86
2022/12/11 02:19:36;;;;;;;24.43;12.07;;;;;;;-2.15;100.00;100393.34;4885069;29;20044;-85
2022/12/11 02:22:08;;;;;;;21.27;10.83;;;;;;;-2.24;100.00;100385.34;4888473;29;20047;-86
2022/12/11 02:24:53;;;;;;;22.50;10.63;;;;;;;-2.29;100.00;100394.69;4888760;29;20463;-85
2022/12/11 02:27:45;;;;;;;19.13;10.00;;;;;;;-2.51;100.00;100393.25;4885700;29;20044;-85
2022/12/11 02:30:14;;;;;;;17.77;10.17;;;;;;;-2.44;100.00;100383.91;4883818;29;20048;-85
2022/12/11 02:32:47;;;;;;;22.97;11.40;;;;;;;-2.43;100.00;100389.16;4887722;29;20045;-87
2022/12/11 02:35:21;;;;;;;19.48;10.48;;;;;;;-2.67;100.00;100386.78;4896014;29;20040;-86
2022/12/11 02:37:51;;;;;;;25.23;12.05;;;;;;;-2.60;100.00;100390.41;4891921;29;20673;-86
2022/12/11 02:40:22;;;;;;;19.50;10.33;;;;;;;-2.62;100.00;100385.16;4885768;29;20040;-87
2022/12/11 02:42:49;;;;;;;20.67;10.50;;;;;;;-2.64;100.00;100391.13;4898831;29;20104;-86
2022/12/11 02:45:17;;;;;;;20.87;10.23;;;;;;;-2.77;100.00;100389.06;4874358;29;20453;-86
2022/12/11 02:47:46;;;;;;;21.67;10.17;;;;;;;-2.75;100.00;100390.84;4915911;29;20042;-85
2022/12/11 02:50:14;;;;;;;18.00;9.93;;;;;;;-2.64;100.00;100391.13;4893426;29;20147;-86
2022/12/11 02:52:41;;;;;;;19.10;10.10;;;;;;;-2.53;100.00;100389.72;4911006;23;20055;-81
2022/12/11 02:55:11;;;;;;;16.97;9.57;;;;;;;-2.66;100.00;100385.06;4933726;29;20052;-81
2022/12/11 02:57:43;;;;;;;17.60;8.70;;;;;;;-2.76;100.00;100383.06;4934168;29;20457;-81
2022/12/11 03:00:10;;;;;;;21.73;9.00;;;;;;;-2.69;100.00;100383.28;4933925;29;20051;-81
2022/12/11 03:02:38;;;;;;;19.53;9.60;;;;;;;-2.71;100.00;100376.28;4899663;29;20047;-81
2022/12/11 03:05:05;;;;;;;18.80;10.50;;;;;;;-2.62;100.00;100386.88;4910977;29;20055;-80
2022/12/11 03:07:34;;;;;;;16.67;8.50;;;;;;;-2.72;100.00;100384.88;4903811;29;20040;-80
2022/12/11 03:10:02;;;;;;;16.97;9.80;;;;;;;-2.72;100.00;100390.91;4899322;29;20779;-82
2022/12/11 03:12:31;;;;;;;18.37;9.30;;;;;;;-2.90;100.00;100392.97;4898545;29;20111;-82
2022/12/11 03:15:00;;;;;;;18.30;8.87;;;;;;;-2.81;100.00;100384.63;4898898;29;20037;-81
2022/12/11 03:17:35;;;;;;;15.47;8.47;;;;;;;-2.89;100.00;100381.81;4897533;29;20072;-79
2022/12/11 03:20:05;;;;;;;18.97;8.80;;;;;;;-2.89;100.00;100377.50;4908881;29;20059;-78
2022/12/11 03:22:47;;;;;;;19.80;10.27;;;;;;;-2.93;100.00;100382.56;4898636;29;20103;-82
2022/12/11 03:25:21;;;;;;;15.10;8.73;;;;;;;-2.91;100.00;100374.00;4882087;29;20055;-81
2022/12/11 03:27:56;;;;;;;18.20;9.60;;;;;;;-2.91;100.00;100373.13;4911886;29;20033;-82
2022/12/11 03:30:23;;;;;;;;;;;;;;;-2.90;100.00;100380.06;4898614;29;20040;-82
2022/12/11 03:33:10;;;;;;;17.97;8.67;;;;;;;-3.03;100.00;100385.69;4914231;29;20435;-81
2022/12/11 03:35:43;;;;;;;16.77;8.63;;;;;;;-2.90;100.00;100391.28;4917082;29;20470;-80
2022/12/11 03:38:37;;;;;;;17.03;8.80;;;;;;;-2.80;100.00;100388.94;4913723;29;20072;-81
2022/12/11 03:41:06;;;;;;;17.88;8.55;;;;;;;-2.89;100.00;100389.56;4912181;29;20128;-80
2022/12/11 03:43:33;;;;;;;17.23;9.30;;;;;;;-2.96;100.00;100385.91;4901001;29;20048;-81
2022/12/11 03:46:00;;;;;;;17.77;8.33;;;;;;;-3.01;100.00;100384.91;4901305;29;20099;-81
2022/12/11 03:48:32;;;;;;;19.57;8.60;;;;;;;-2.82;100.00;100391.50;4900920;29;20040;-80
2022/12/11 03:51:01;;;;;;;20.33;8.87;;;;;;;-2.91;100.00;100386.06;4918861;29;20609;-81
2022/12/11 03:53:27;;;;;;;17.23;9.73;;;;;;;-2.90;100.00;100375.75;4901573;29;20052;-82
2022/12/11 03:55:57;;;;;;;16.73;9.27;;;;;;;-2.90;100.00;100380.94;4888819;29;20048;-82
2022/12/11 03:58:26;;;;;;;17.20;9.83;;;;;;;-2.90;100.00;100375.75;4901477;29;20044;-81
2022/12/11 04:00:53;;;;;;;17.87;9.17;;;;;;;-2.72;100.00;100375.41;4886230;29;20040;-81
2022/12/11 04:03:20;;;;;;;22.43;9.70;;;;;;;-2.80;100.00;100376.03;4901219;29;20055;-82
2022/12/11 04:05:49;;;;;;;16.80;9.83;;;;;;;-2.93;100.00;100380.84;4900647;29;20107;-80
2022/12/11 04:08:17;;;;;;;15.80;9.30;;;;;;;-2.71;100.00;100389.22;4901074;29;20438;-82
2022/12/11 04:10:44;;;;;;;17.63;8.63;;;;;;;-2.74;100.00;100386.53;4901213;29;20112;-81
2022/12/11 04:13:13;;;;;;;19.17;9.77;;;;;;;-2.82;100.00;100388.91;4916957;29;20095;-82
2022/12/11 04:15:40;;;;;;;21.17;9.70;;;;;;;-2.79;100.00;100393.28;4916208;29;20147;-83
2022/12/11 04:26:24;;;;;;;18.63;8.57;;;;;;;-3.22;100.00;100382.56;4902161;29;20411;-82
2022/12/11 04:28:51;;;;;;;20.60;9.37;;;;;;;-3.00;100.00;100385.78;4906567;29;20082;-82
2022/12/11 04:31:20;;;;;;;17.03;8.43;;;;;;;-2.96;100.00;100392.78;4903906;29;20048;-81
2022/12/11 04:33:50;;;;;;;17.83;8.73;;;;;;;-3.14;100.00;100387.97;4907610;29;20077;-81
2022/12/11 04:36:17;;;;;;;16.03;7.83;;;;;;;-3.24;100.00;100388.50;4931587;29;20450;-82
2022/12/11 04:38:44;;;;;;;15.93;8.03;;;;;;;-3.25;100.00;100386.78;4899932;29;20095;-81
2022/12/11 04:41:15;;;;;;;15.60;7.87;;;;;;;-3.28;100.00;100391.81;4900750;29;20052;-83
2022/12/11 04:43:45;;;;;;;20.53;9.07;;;;;;;-3.29;100.00;100390.06;4899839;29;20052;-81
2022/12/11 04:46:20;;;;;;;17.90;9.63;;;;;;;-3.41;100.00;100381.13;4902452;29;20044;-82
2022/12/11 04:48:47;;;;;;;21.97;8.87;;;;;;;-3.39;100.00;100386.34;4919277;29;20452;-83
2022/12/11 04:51:23;;;;;;;23.53;9.60;;;;;;;-3.24;100.00;100385.94;4901114;29;20520;-81
2022/12/11 04:53:50;;;;;;;21.40;9.03;;;;;;;-3.25;100.00;100384.19;4902008;29;20143;-83
2022/12/11 04:56:17;;;;;;;16.23;9.00;;;;;;;-3.40;100.00;100388.03;4904608;29;20048;-82
2022/12/11 04:58:44;;;;;;;21.73;10.60;;;;;;;-3.36;100.00;100388.13;4918171;29;20045;-80
2022/12/11 05:01:14;;;;;;;22.47;9.97;;;;;;;-3.46;100.00;100395.59;4918529;29;20630;-80
2022/12/11 05:03:41;;;;;;;18.17;9.57;;;;;;;-3.22;100.00;100400.63;4901819;29;20127;-82
2022/12/11 05:06:09;;;;;;;19.00;9.73;;;;;;;-3.27;100.00;100403.94;4917448;29;20035;-83
2022/12/11 05:08:39;;;;;;;21.30;9.20;;;;;;;-3.32;100.00;100397.72;4901524;29;20940;-82
2022/12/11 05:11:11;;;;;;;19.20;9.10;;;;;;;-3.37;100.00;100395.00;4902186;29;20044;-82
2022/12/11 05:13:38;;;;;;;15.60;8.30;;;;;;;-3.44;100.00;100395.66;4899858;29;20052;-79
2022/12/11 05:16:07;;;;;;;18.53;8.93;;;;;;;-3.53;100.00;100404.00;4922557;29;20084;-80
2022/12/11 05:18:34;;;;;;;21.40;10.60;;;;;;;-3.64;100.00;100401.88;4908964;29;20040;-80
2022/12/11 05:21:02;;;;;;;17.37;8.53;;;;;;;-3.57;100.00;100393.50;4907279;29;20052;-79
2022/12/11 05:23:29;;;;;;;20.67;9.57;;;;;;;-3.55;100.00;100391.84;4939893;29;20054;-80
2022/12/11 05:25:59;;;;;;;22.17;10.53;;;;;;;-3.60;100.00;100381.38;4922077;29;20048;-80
2022/12/11 05:28:28;;;;;;;21.23;9.43;;;;;;;-3.48;100.00;100379.19;4914470;29;20040;-79
2022/12/11 05:31:04;;;;;;;20.43;9.83;;;;;;;-3.49;100.00;100384.28;4904773;29;20060;-78
2022/12/11 05:33:31;;;;;;;19.47;8.90;;;;;;;-3.54;100.00;100381.56;4937574;29;20033;-79
2022/12/11 05:35:58;;;;;;;18.23;10.03;;;;;;;-3.67;100.00;100376.84;4926752;29;20048;-80
2022/12/11 05:38:27;;;;;;;21.93;10.10;;;;;;;-3.76;100.00;100376.56;4921323;29;20131;-79
2022/12/11 05:40:59;;;;;;;20.57;10.30;;;;;;;-3.87;100.00;100375.31;4904203;29;20465;-81
2022/12/11 05:43:27;;;;;;;20.57;10.17;;;;;;;-3.72;100.00;100378.41;4902979;29;20459;-81
2022/12/11 05:45:55;;;;;;;18.37;9.60;;;;;;;-3.73;100.00;100371.47;4921283;29;20090;-79
2022/12/11 05:48:21;;;;;;;21.47;10.20;;;;;;;-3.83;100.00;100377.19;4918995;29;20040;-79
2022/12/11 05:51:01;;;;;;;19.53;9.23;;;;;;;-3.80;100.00;100366.94;4923045;29;20052;-80
2022/12/11 05:53:28;;;;;;;21.10;10.60;;;;;;;-3.82;100.00;100377.22;4937224;29;20048;-80
2022/12/11 05:56:03;;;;;;;21.60;10.17;;;;;;;-3.80;100.00;100370.41;4905924;29;20051;-79
2022/12/11 05:58:30;;;;;;;24.73;10.63;;;;;;;-3.71;100.00;100362.06;4892536;29;20152;-81
2022/12/11 06:01:00;;;;;;;22.50;9.90;;;;;;;-3.85;100.00;100368.53;4923728;29;20052;-79
2022/12/11 06:03:27;;;;;;;20.87;9.50;;;;;;;-3.90;100.00;100358.03;4907408;29;20044;-79
2022/12/11 06:05:53;;;;;;;20.87;10.97;;;;;;;-3.80;100.00;100357.50;4906282;29;20039;-79
2022/12/11 06:08:20;;;;;;;20.70;9.93;;;;;;;-3.73;100.00;100361.16;4919082;29;20044;-81
2022/12/11 06:10:48;;;;;;;26.17;11.30;;;;;;;-3.80;100.00;100362.66;4906091;29;20040;-80
2022/12/11 06:13:16;;;;;;;20.87;9.70;;;;;;;-3.72;100.00;100352.59;4921285;29;20044;-79
2022/12/11 06:15:42;;;;;;;20.67;9.87;;;;;;;-3.67;100.00;100356.19;4917838;29;20048;-80
2022/12/11 06:18:09;;;;;;;20.63;10.63;;;;;;;-3.81;100.00;100352.28;4925019;29;20050;-80
2022/12/11 06:20:36;;;;;;;22.20;11.03;;;;;;;-3.72;100.00;100352.59;4903003;29;20055;-80
2022/12/11 06:23:03;;;;;;;20.33;9.63;;;;;;;-3.80;100.00;100357.50;4912885;29;20131;-78
2022/12/11 06:25:30;;;;;;;22.83;10.67;;;;;;;-3.58;100.00;100350.44;4918465;29;20040;-77
2022/12/11 06:27:56;;;;;;;21.33;10.83;;;;;;;-3.68;100.00;100354.44;4905271;29;20135;-77
2022/12/11 06:30:23;;;;;;;23.33;10.73;;;;;;;-3.78;100.00;100360.16;4916904;29;20048;-81
2022/12/11 06:33:05;;;;;;;22.00;10.27;;;;;;;-3.80;100.00;100360.06;4894899;29;20048;-77
2022/12/11 06:35:32;;;;;;;24.07;10.83;;;;;;;-3.67;100.00;100363.06;4917725;29;20056;-77
2022/12/11 06:38:07;;;;;;;21.53;9.30;;;;;;;-3.76;100.00;100361.06;4884862;29;20134;-77
2022/12/11 06:40:33;;;;;;;21.77;10.43;;;;;;;-3.92;100.00;100358.81;4925747;29;20044;-78
2022/12/11 06:43:00;;;;;;;23.00;10.63;;;;;;;-3.83;100.00;100359.13;4899688;29;20055;-78
2022/12/11 06:45:27;;;;;;;24.87;10.53;;;;;;;-3.84;100.00;100359.94;4911506;29;20091;-78
2022/12/11 06:47:54;;;;;;;20.47;9.83;;;;;;;-3.85;100.00;100356.50;4898434;29;20036;-79
2022/12/11 06:50:21;;;;;;;21.87;9.63;;;;;;;-3.81;100.00;100353.16;4901805;29;20040;-78
2022/12/11 06:52:48;;;;;;;18.13;10.40;;;;;;;-3.91;100.00;100364.03;4894226;29;20099;-79
2022/12/11 06:55:15;;;;;;;23.10;10.13;;;;;;;-3.89;100.00;100371.81;4899180;29;20104;-78
2022/12/11 06:57:41;;;;;;;19.37;9.17;;;;;;;-3.92;100.00;100372.59;4903039;29;20040;-79
2022/12/11 07:00:09;;;;;;;19.13;9.70;;;;;;;-3.83;100.00;100379.75;4901578;29;20055;-78
2022/12/11 07:02:36;;;;;;;18.30;9.83;;;;;;;-3.64;100.00;100370.91;4915587;29;20048;-77
2022/12/11 07:05:03;;;;;;;20.83;9.93;;;;;;;-3.61;100.00;100371.00;4916368;29;20040;-77
2022/12/11 07:07:30;;;;;;;18.13;9.87;;;;;;;-3.76;100.00;100361.94;4888287;29;20036;-78
2022/12/11 07:09:57;;;;;;;19.97;9.73;;;;;;;-3.74;100.00;100356.81;4899126;29;20541;-78
2022/12/11 07:12:32;;;;;;;23.87;11.67;;;;;;;-3.68;100.00;100351.88;4895757;29;20511;-80
2022/12/11 07:14:59;;;;;;;18.63;9.17;;;;;;;-3.71;100.00;100349.16;4902607;29;20446;-79
2022/12/11 07:17:28;;;;;;;23.27;9.87;;;;;;;-3.78;100.00;100353.28;4911287;29;20032;-77
2022/12/11 07:19:54;;;;;;;21.30;10.33;;;;;;;-3.82;100.00;100350.53;4878071;29;20070;-79
2022/12/11 07:22:21;;;;;;;22.30;10.33;;;;;;;-3.83;100.00;100359.13;4898600;29;20055;-78
2022/12/11 07:24:48;;;;;;;18.60;9.07;;;;;;;-3.75;100.00;100358.53;4899917;29;20130;-78
2022/12/11 07:27:15;;;;;;;18.53;8.63;;;;;;;-3.76;100.00;100368.81;4926376;29;20470;-78
2022/12/11 07:29:42;;;;;;;19.23;8.80;;;;;;;-3.87;100.00;100358.13;4914485;29;20099;-77
2022/12/11 07:32:09;;;;;;;17.30;8.63;;;;;;;-3.81;100.00;100366.06;4883641;29;20132;-79
2022/12/11 07:34:36;;;;;;;15.50;8.13;;;;;;;-3.85;100.00;100371.97;4916840;29;20081;-78
2022/12/11 07:37:03;;;;;;;18.37;8.07;;;;;;;-3.87;100.00;100372.72;4901504;29;20039;-79
2022/12/11 07:39:30;;;;;;;18.87;9.37;;;;;;;-3.87;100.00;100365.88;4904348;29;20414;-79
2022/12/11 07:41:57;;;;;;;15.40;8.50;;;;;;;-3.85;100.00;100376.25;4907870;29;20238;-80
2022/12/11 07:44:23;;;;;;;17.33;7.93;;;;;;;-3.66;100.00;100373.44;4899941;29;20052;-79
2022/12/11 07:46:50;;;;;;;18.83;9.50;;;;;;;-3.65;100.00;100375.19;4902315;29;20055;-78
2022/12/11 07:49:17;;;;;;;19.13;8.40;;;;;;;-3.67;100.00;100376.84;4924000;29;20048;-79
2022/12/11 07:51:43;;;;;;;14.80;7.70;;;;;;;-3.70;100.00;100367.31;4921912;29;20052;-79
2022/12/11 07:54:15;;;;;;;26.63;15.33;;;;;;;-3.74;100.00;100372.31;4919545;29;20044;-78
2022/12/11 07:56:43;;;;;;;19.40;9.97;;;;;;;-3.66;100.00;100376.03;4919232;29;20055;-79
2022/12/11 07:59:15;;;;;;;16.90;8.70;;;;;;;-3.62;100.00;100380.44;4903745;29;20044;-78
2022/12/11 08:01:42;;;;;;;16.23;7.53;;;;;;;-3.65;100.00;100375.19;4906440;29;20123;-79
2022/12/11 08:04:10;;;;;;;16.27;8.63;;;;;;;-3.74;100.00;100373.19;4921602;29;20058;-81
2022/12/11 08:06:39;;;;;;;15.77;7.13;;;;;;;-3.40;100.00;100372.53;4900555;29;20059;-80
2022/12/11 08:09:09;;;;;;;14.47;8.53;;;;;;;-3.65;100.00;100371.72;4905319;29;20044;-79
2022/12/11 08:11:47;;;;;;;17.03;8.77;;;;;;;-3.71;100.00;100370.69;4922965;29;20067;-79
2022/12/11 08:14:14;;;;;;;16.53;7.17;;;;;;;-3.74;100.00;100378.34;4923943;29;20036;-79
2022/12/11 08:16:42;;;;;;;16.20;8.07;;;;;;;-3.62;100.00;100370.09;4893725;29;20087;-80
2022/12/11 08:19:13;;;;;;;16.63;8.07;;;;;;;-3.55;100.00;100366.91;4927073;29;20071;-79
2022/12/11 08:21:40;;;;;;;16.63;8.83;;;;;;;-3.71;100.00;100372.41;4907518;29;20051;-79
2022/12/11 08:24:07;;;;;;;17.27;9.60;;;;;;;-3.67;100.00;100371.69;4924010;29;20055;-80
2022/12/11 08:26:35;;;;;;;14.17;7.47;;;;;;;-3.61;100.00;100371.00;4907353;29;20040;-80
2022/12/11 08:29:02;;;;;;;14.13;7.17;;;;;;;-3.62;100.00;100375.28;4894374;29;20055;-79
2022/12/11 08:31:29;;;;;;;16.47;8.10;;;;;;;-3.41;100.00;100372.50;4920256;29;20039;-79
2022/12/11 08:33:56;;;;;;;16.43;9.10;;;;;;;-3.44;100.00;100369.84;4937198;29;20048;-78
2022/12/11 08:36:23;;;;;;;13.67;7.23;;;;;;;-3.42;100.00;100365.59;4904737;29;20068;-80
2022/12/11 08:38:51;;;;;;;14.23;7.57;;;;;;;-3.37;100.00;100370.88;4908434;29;20052;-78
2022/12/11 08:41:21;;;;;;;14.57;7.13;;;;;;;-3.31;100.00;100364.19;4907167;29;20095;-79
2022/12/11 08:43:53;;;;;;;18.17;8.30;;;;;;;-3.29;100.00;100366.81;4906873;29;20044;-80
2022/12/11 08:46:27;;;;;;;13.17;8.00;;;;;;;-3.34;100.00;100368.41;4904785;29;20047;-79
2022/12/11 08:48:54;;;;;;;15.48;8.13;;;;;;;-3.36;100.00;100376.13;4892328;29;20131;-79
2022/12/11 08:51:24;;;;;;;18.13;8.67;;;;;;;-3.23;100.00;100374.75;4908058;29;20116;-79
2022/12/11 08:53:57;;;;;;;14.30;7.30;;;;;;;-3.19;100.00;100381.78;4918774;29;20071;-79
2022/12/11 08:56:24;;;;;;;18.27;8.30;;;;;;;-3.15;100.00;100378.47;4912959;29;20043;-80
2022/12/11 08:58:51;;;;;;;18.40;7.47;;;;;;;-3.15;100.00;100376.75;4891391;29;20052;-80
2022/12/11 09:01:21;;;;;;;16.10;7.40;;;;;;;-3.12;100.00;100381.13;4904300;29;20566;-79
2022/12/11 09:03:49;;;;;;;17.77;8.13;;;;;;;-3.02;100.00;100372.84;4897377;29;20078;-79
2022/12/11 09:06:18;;;;;;;13.67;7.53;;;;;;;-3.02;100.00;100375.41;4908301;29;20059;-80
2022/12/11 09:08:47;;;;;;;13.73;7.27;;;;;;;-2.95;100.00;100374.75;4872974;29;20112;-80
2022/12/11 09:11:21;;;;;;;15.23;7.73;;;;;;;-2.91;100.00;100375.72;4891610;29;20051;-80
2022/12/11 09:13:48;;;;;;;16.87;6.80;;;;;;;-2.85;100.00;100376.78;4908526;29;20048;-79
2022/12/11 09:16:16;;;;;;;14.33;6.73;;;;;;;-2.83;100.00;100371.66;4919766;29;20041;-79
2022/12/11 09:18:47;;;;;;;14.13;6.80;;;;;;;-2.78;100.00;100379.53;4906383;29;20054;-79
2022/12/11 09:21:16;;;;;;;14.83;7.63;;;;;;;-2.77;100.00;100383.88;4920841;29;20048;-81
2022/12/11 09:23:43;;;;;;;13.00;7.00;;;;;;;-2.72;100.00;100387.47;4915270;29;20048;-81
2022/12/11 09:26:12;;;;;;;14.90;6.97;;;;;;;-2.77;100.00;100391.66;4892397;29;20044;-81
2022/12/11 09:28:39;;;;;;;19.23;8.33;;;;;;;-3.01;100.00;100389.22;4908082;29;20035;-79
2022/12/11 09:31:24;;;;;;;15.73;7.10;;;;;;;-2.66;100.00;100391.09;4904012;29;20052;-79
2022/12/11 09:33:54;;;;;;;16.80;7.80;;;;;;;-2.79;100.00;100393.28;4903644;29;20072;-79
2022/12/11 09:36:21;;;;;;;14.07;6.87;;;;;;;-2.85;100.00;100401.75;4888330;29;20064;-79
2022/12/11 09:38:48;;;;;;;14.23;6.50;;;;;;;-2.77;100.00;100395.09;4901427;29;20814;-79
2022/12/11 09:41:21;;;;;;;16.30;7.80;;;;;;;-2.58;100.00;100392.19;4892049;29;20494;-78
2022/12/11 09:43:51;;;;;;;16.47;7.63;;;;;;;-2.76;100.00;100389.09;4902350;29;20490;-79
2022/12/11 09:46:18;;;;;;;31.83;15.10;;;;;;;-2.58;100.00;100386.16;4907167;29;20051;-78
2022/12/11 09:48:52;;;;;;;23.33;11.40;;;;;;;-2.73;100.00;100391.75;4877514;29;20075;-79
2022/12/11 09:51:26;;;;;;;13.97;7.10;;;;;;;-2.63;100.00;100382.53;4897992;29;20036;-79
2022/12/11 09:53:55;;;;;;;36.03;16.47;;;;;;;-2.77;100.00;100384.75;4902599;29;20040;-79
2022/12/11 09:56:25;;;;;;;15.10;7.13;;;;;;;-2.75;100.00;100377.03;4902646;29;20055;-80
2022/12/11 09:59:03;;;;;;;12.20;6.53;;;;;;;-2.78;100.00;100376.94;4919714;29;20040;-79
2022/12/11 10:01:50;;;;;;;14.70;6.83;;;;;;;-2.71;100.00;100371.13;4917564;29;20056;-80
2022/12/11 10:04:54;;;;;;;12.60;6.90;;;;;;;-2.73;100.00;100370.19;4916131;29;20040;-79
2022/12/11 10:07:33;;;;;;;13.57;6.30;;;;;;;-2.68;100.00;100364.34;4901048;29;20048;-78
2022/12/11 10:10:14;;;;;;;14.83;6.83;;;;;;;-2.64;100.00;100350.63;4926558;29;20051;-80
2022/12/11 10:12:52;;;;;;;16.83;7.80;;;;;;;-2.53;100.00;100360.41;4898649;29;20669;-81
2022/12/11 10:15:34;;;;;;;14.90;8.07;;;;;;;-2.48;100.00;100359.69;4894471;29;20051;-81
2022/12/11 10:18:05;;;;;;;12.53;7.10;;;;;;;-2.48;100.00;100354.53;4891320;29;20073;-81
2022/12/11 10:20:38;;;;;;;10.10;5.80;;;;;;;-2.27;100.00;100351.63;4897366;29;20039;-81
2022/12/11 10:23:07;;;;;;;13.57;7.23;;;;;;;-2.13;100.00;100342.50;4899456;29;20506;-80
2022/12/11 10:25:44;;;;;;;11.70;6.47;;;;;;;-1.98;100.00;100337.72;4910222;29;20064;-80
2022/12/11 10:28:13;;;;;;;29.27;14.40;;;;;;;-2.25;100.00;100329.28;4899785;29;20056;-81
2022/12/11 10:31:09;;;;;;;20.37;11.33;;;;;;;-2.15;100.00;100328.66;4931073;29;20036;-81
2022/12/11 10:34:01;;;;;;;12.97;7.13;;;;;;;-2.00;100.00;100331.63;4912043;29;20091;-81
2022/12/11 10:36:34;;;;;;;14.13;7.77;;;;;;;-2.09;100.00;100328.81;4895046;29;20077;-80
2022/12/11 10:39:01;;;;;;;16.43;6.93;;;;;;;-2.07;100.00;100329.72;4911778;29;20047;-81
2022/12/11 10:41:40;;;;;;;16.77;7.73;;;;;;;-1.85;100.00;100314.69;4911306;29;20040;-81
2022/12/11 10:44:33;;;;;;;14.00;7.73;;;;;;;-1.85;100.00;100313.00;4880117;29;20048;-80
2022/12/11 10:47:14;;;;;;;17.57;8.13;;;;;;;-1.84;100.00;100309.59;4893587;29;20101;-81
2022/12/11 10:49:51;;;;;;;16.20;7.40;;;;;;;-1.85;100.00;100319.88;4897138;29;20128;-80
2022/12/11 10:52:27;;;;;;;13.40;7.47;;;;;;;-1.70;100.00;100308.16;4904169;29;20663;-81
2022/12/11 10:54:58;;;;;;;13.57;6.57;;;;;;;-1.89;100.00;100308.59;4884890;29;21631;-81
2022/12/11 10:57:35;;;;;;;13.03;6.27;;;;;;;-1.82;100.00;100307.03;4882047;29;20068;-79
2022/12/11 11:00:07;;;;;;;13.30;6.67;;;;;;;-1.86;100.00;100305.19;4885913;29;20063;-79
2022/12/11 11:02:36;;;;;;;13.20;6.57;;;;;;;-1.94;100.00;100301.53;4883495;29;20044;-83
2022/12/11 11:05:31;;;;;;;11.63;5.47;;;;;;;-1.80;100.00;100294.97;4886025;29;20048;-83
2022/12/11 11:08:10;;;;;;;14.63;7.18;;;;;;;-1.72;100.00;100299.50;4893448;29;20048;-83
2022/12/11 11:10:37;;;;;;;11.97;5.83;;;;;;;-1.55;99.99;100294.69;4888856;29;20246;-82
2022/12/11 11:13:04;;;;;;;17.30;10.50;;;;;;;-1.60;100.00;100283.34;4906693;29;20131;-80
2022/12/11 11:15:30;;;;;;;15.10;8.27;;;;;;;-1.63;100.00;100279.81;4909309;29;20131;-81
2022/12/11 11:18:08;;;;;;;14.13;7.13;;;;;;;-1.56;100.00;100282.59;4910418;29;20127;-81
2022/12/11 11:20:35;;;;;;;13.27;7.13;;;;;;;-1.48;100.00;100273.28;4888861;29;20052;-80
2022/12/11 11:23:10;;;;;;;12.23;6.40;;;;;;;-1.28;100.00;100273.69;4872249;29;20048;-82
2022/12/11 11:25:37;;;;;;;13.37;6.23;;;;;;;-1.13;98.37;100276.59;4884977;29;20099;-81
2022/12/11 11:28:05;;;;;;;14.00;7.37;;;;;;;-1.12;96.36;100277.47;4885074;29;20131;-82
2022/12/11 11:30:38;;;;;;;14.10;7.13;;;;;;;-0.97;98.53;100272.59;4900422;29;20047;-81